sensor_id;sensor_type;location;lat;lon;timestamp;P1;durP1;ratioP1;P2;durP2;ratioP2
5821;SDS011;2937;48.562;8.022;2023-05-07T00:04:37;8.53;;;6.50;;
5821;SDS011;2937;48.562;8.022;2023-05-07T00:09:30;6.93;;;6.23;;
5821;SDS011;2937;48.562;8.022;2023-05-07T00:14:24;7.23;;;5.70;;
5821;SDS011;2937;48.562;8.022;2023-05-07T00:19:17;9.00;;;5.63;;
5821;SDS011;2937;48.562;8.022;2023-05-07T00:24:10;8.73;;;6.20;;
5821;SDS011;2937;48.562;8.022;2023-05-07T00:29:02;12.00;;;6.30;;
5821;SDS011;2937;48.562;8.022;2023-05-07T00:33:56;14.70;;;6.70;;
5821;SDS011;2937;48.562;8.022;2023-05-07T00:38:49;7.87;;;6.77;;
5821;SDS011;2937;48.562;8.022;2023-05-07T00:43:42;10.33;;;7.20;;
5821;SDS011;2937;48.562;8.022;2023-05-07T00:48:34;8.23;;;6.97;;
5821;SDS011;2937;48.562;8.022;2023-05-07T00:53:28;8.97;;;7.13;;
5821;SDS011;2937;48.562;8.022;2023-05-07T00:58:21;9.00;;;8.10;;
5821;SDS011;2937;48.562;8.022;2023-05-07T01:03:14;13.00;;;8.60;;
5821;SDS011;2937;48.562;8.022;2023-05-07T01:08:07;9.73;;;8.73;;
5821;SDS011;2937;48.562;8.022;2023-05-07T01:13:01;10.10;;;9.00;;
5821;SDS011;2937;48.562;8.022;2023-05-07T01:17:54;12.50;;;10.10;;
5821;SDS011;2937;48.562;8.022;2023-05-07T01:22:56;11.40;;;10.07;;
5821;SDS011;2937;48.562;8.022;2023-05-07T01:27:49;14.23;;;10.47;;
5821;SDS011;2937;48.562;8.022;2023-05-07T01:32:47;13.97;;;10.30;;
5821;SDS011;2937;48.562;8.022;2023-05-07T01:37:40;12.43;;;9.70;;
5821;SDS011;2937;48.562;8.022;2023-05-07T01:42:35;12.67;;;9.47;;
5821;SDS011;2937;48.562;8.022;2023-05-07T01:47:28;11.73;;;9.60;;
5821;SDS011;2937;48.562;8.022;2023-05-07T01:52:21;11.10;;;9.30;;
5821;SDS011;2937;48.562;8.022;2023-05-07T01:57:14;13.87;;;9.63;;
5821;SDS011;2937;48.562;8.022;2023-05-07T02:02:08;11.90;;;8.90;;
5821;SDS011;2937;48.562;8.022;2023-05-07T02:07:06;10.27;;;9.17;;
5821;SDS011;2937;48.562;8.022;2023-05-07T02:11:59;11.00;;;9.73;;
5821;SDS011;2937;48.562;8.022;2023-05-07T02:16:53;9.70;;;8.60;;
5821;SDS011;2937;48.562;8.022;2023-05-07T02:21:47;9.70;;;8.20;;
5821;SDS011;2937;48.562;8.022;2023-05-07T02:26:40;11.00;;;9.80;;
5821;SDS011;2937;48.562;8.022;2023-05-07T02:31:33;11.20;;;9.33;;
5821;SDS011;2937;48.562;8.022;2023-05-07T02:36:26;13.23;;;10.53;;
5821;SDS011;2937;48.562;8.022;2023-05-07T02:41:27;13.90;;;10.70;;
5821;SDS011;2937;48.562;8.022;2023-05-07T02:46:20;11.27;;;10.07;;
5821;SDS011;2937;48.562;8.022;2023-05-07T02:51:21;11.60;;;10.07;;
5821;SDS011;2937;48.562;8.022;2023-05-07T02:56:18;12.43;;;11.07;;
5821;SDS011;2937;48.562;8.022;2023-05-07T03:01:12;14.97;;;10.43;;
5821;SDS011;2937;48.562;8.022;2023-05-07T03:06:19;13.10;;;11.50;;
5821;SDS011;2937;48.562;8.022;2023-05-07T03:11:12;13.87;;;12.37;;
5821;SDS011;2937;48.562;8.022;2023-05-07T03:16:05;15.60;;;12.27;;
5821;SDS011;2937;48.562;8.022;2023-05-07T03:20:59;19.03;;;13.17;;
5821;SDS011;2937;48.562;8.022;2023-05-07T03:25:52;16.40;;;12.73;;
5821;SDS011;2937;48.562;8.022;2023-05-07T03:30:45;15.37;;;11.77;;
5821;SDS011;2937;48.562;8.022;2023-05-07T03:35:38;16.43;;;12.90;;
5821;SDS011;2937;48.562;8.022;2023-05-07T03:40:32;19.03;;;12.57;;
5821;SDS011;2937;48.562;8.022;2023-05-07T03:45:26;17.50;;;13.70;;
5821;SDS011;2937;48.562;8.022;2023-05-07T03:50:29;14.83;;;12.43;;
5821;SDS011;2937;48.562;8.022;2023-05-07T03:55:22;13.50;;;11.63;;
5821;SDS011;2937;48.562;8.022;2023-05-07T04:00:22;11.23;;;8.73;;
5821;SDS011;2937;48.562;8.022;2023-05-07T04:05:14;18.30;;;12.70;;
5821;SDS011;2937;48.562;8.022;2023-05-07T04:10:09;19.90;;;15.67;;
5821;SDS011;2937;48.562;8.022;2023-05-07T04:15:05;20.30;;;16.10;;
5821;SDS011;2937;48.562;8.022;2023-05-07T04:20:00;22.17;;;15.07;;
5821;SDS011;2937;48.562;8.022;2023-05-07T04:24:54;16.57;;;14.20;;
5821;SDS011;2937;48.562;8.022;2023-05-07T04:29:47;20.70;;;15.10;;
5821;SDS011;2937;48.562;8.022;2023-05-07T04:34:41;22.67;;;17.40;;
5821;SDS011;2937;48.562;8.022;2023-05-07T04:39:36;20.40;;;16.23;;
5821;SDS011;2937;48.562;8.022;2023-05-07T04:44:29;25.57;;;18.40;;
5821;SDS011;2937;48.562;8.022;2023-05-07T04:49:22;18.17;;;14.87;;
5821;SDS011;2937;48.562;8.022;2023-05-07T04:54:17;19.63;;;17.00;;
5821;SDS011;2937;48.562;8.022;2023-05-07T04:59:11;17.00;;;14.03;;
5821;SDS011;2937;48.562;8.022;2023-05-07T05:04:04;14.90;;;13.30;;
5821;SDS011;2937;48.562;8.022;2023-05-07T05:08:57;15.90;;;14.20;;
5821;SDS011;2937;48.562;8.022;2023-05-07T05:13:52;15.10;;;13.50;;
5821;SDS011;2937;48.562;8.022;2023-05-07T05:18:46;13.20;;;11.23;;
5821;SDS011;2937;48.562;8.022;2023-05-07T05:23:42;12.83;;;11.53;;
5821;SDS011;2937;48.562;8.022;2023-05-07T05:28:37;17.50;;;12.27;;
5821;SDS011;2937;48.562;8.022;2023-05-07T05:33:30;12.33;;;11.13;;
5821;SDS011;2937;48.562;8.022;2023-05-07T05:38:28;13.33;;;11.90;;
5821;SDS011;2937;48.562;8.022;2023-05-07T05:43:21;13.67;;;10.40;;
5821;SDS011;2937;48.562;8.022;2023-05-07T05:48:14;13.63;;;9.90;;
5821;SDS011;2937;48.562;8.022;2023-05-07T05:53:07;12.63;;;10.73;;
5821;SDS011;2937;48.562;8.022;2023-05-07T05:58:01;11.80;;;10.60;;
5821;SDS011;2937;48.562;8.022;2023-05-07T06:02:59;10.63;;;9.53;;
5821;SDS011;2937;48.562;8.022;2023-05-07T06:07:52;12.50;;;8.90;;
5821;SDS011;2937;48.562;8.022;2023-05-07T06:12:45;8.90;;;8.00;;
5821;SDS011;2937;48.562;8.022;2023-05-07T06:17:41;9.83;;;7.87;;
5821;SDS011;2937;48.562;8.022;2023-05-07T06:22:35;8.17;;;7.33;;
5821;SDS011;2937;48.562;8.022;2023-05-07T06:27:29;8.57;;;7.37;;
5821;SDS011;2937;48.562;8.022;2023-05-07T06:32:22;8.80;;;7.90;;
5821;SDS011;2937;48.562;8.022;2023-05-07T06:37:17;9.37;;;8.37;;
5821;SDS011;2937;48.562;8.022;2023-05-07T06:42:18;8.40;;;7.60;;
5821;SDS011;2937;48.562;8.022;2023-05-07T06:47:13;8.40;;;7.30;;
5821;SDS011;2937;48.562;8.022;2023-05-07T06:52:09;7.80;;;7.10;;
5821;SDS011;2937;48.562;8.022;2023-05-07T06:57:03;10.03;;;7.80;;
5821;SDS011;2937;48.562;8.022;2023-05-07T07:01:56;8.87;;;7.60;;
5821;SDS011;2937;48.562;8.022;2023-05-07T07:06:49;9.73;;;8.07;;
5821;SDS011;2937;48.562;8.022;2023-05-07T07:11:44;11.80;;;9.07;;
5821;SDS011;2937;48.562;8.022;2023-05-07T07:16:38;9.00;;;8.10;;
5821;SDS011;2937;48.562;8.022;2023-05-07T07:21:31;9.93;;;8.30;;
5821;SDS011;2937;48.562;8.022;2023-05-07T07:26:24;9.97;;;6.97;;
5821;SDS011;2937;48.562;8.022;2023-05-07T07:31:17;9.47;;;7.87;;
5821;SDS011;2937;48.562;8.022;2023-05-07T07:36:15;9.97;;;7.93;;
5821;SDS011;2937;48.562;8.022;2023-05-07T07:41:09;8.87;;;7.23;;
5821;SDS011;2937;48.562;8.022;2023-05-07T07:46:02;8.17;;;7.03;;
5821;SDS011;2937;48.562;8.022;2023-05-07T07:50:55;7.30;;;6.60;;
5821;SDS011;2937;48.562;8.022;2023-05-07T07:55:50;9.70;;;6.77;;
5821;SDS011;2937;48.562;8.022;2023-05-07T08:00:45;7.87;;;6.40;;
5821;SDS011;2937;48.562;8.022;2023-05-07T08:05:39;7.70;;;6.90;;
5821;SDS011;2937;48.562;8.022;2023-05-07T08:10:32;7.60;;;6.90;;
5821;SDS011;2937;48.562;8.022;2023-05-07T08:15:33;7.90;;;7.03;;
5821;SDS011;2937;48.562;8.022;2023-05-07T08:20:26;9.33;;;7.20;;
5821;SDS011;2937;48.562;8.022;2023-05-07T08:25:21;9.67;;;8.77;;
5821;SDS011;2937;48.562;8.022;2023-05-07T08:30:14;9.53;;;8.20;;
5821;SDS011;2937;48.562;8.022;2023-05-07T08:35:09;10.83;;;9.10;;
5821;SDS011;2937;48.562;8.022;2023-05-07T08:40:03;8.50;;;7.53;;
5821;SDS011;2937;48.562;8.022;2023-05-07T08:45:00;8.67;;;7.57;;
5821;SDS011;2937;48.562;8.022;2023-05-07T08:49:58;7.60;;;6.80;;
5821;SDS011;2937;48.562;8.022;2023-05-07T08:54:53;6.97;;;6.27;;
5821;SDS011;2937;48.562;8.022;2023-05-07T08:59:48;7.13;;;6.43;;
5821;SDS011;2937;48.562;8.022;2023-05-07T09:04:40;8.70;;;7.87;;
5821;SDS011;2937;48.562;8.022;2023-05-07T09:09:33;8.03;;;6.23;;
5821;SDS011;2937;48.562;8.022;2023-05-07T09:14:29;10.20;;;7.70;;
5821;SDS011;2937;48.562;8.022;2023-05-07T09:19:24;8.73;;;5.77;;
5821;SDS011;2937;48.562;8.022;2023-05-07T09:24:18;7.53;;;6.77;;
5821;SDS011;2937;48.562;8.022;2023-05-07T09:29:11;7.00;;;6.30;;
5821;SDS011;2937;48.562;8.022;2023-05-07T09:34:06;10.10;;;7.37;;
5821;SDS011;2937;48.562;8.022;2023-05-07T09:39:01;7.70;;;7.00;;
5821;SDS011;2937;48.562;8.022;2023-05-07T09:43:55;9.50;;;7.93;;
5821;SDS011;2937;48.562;8.022;2023-05-07T09:48:54;8.80;;;8.00;;
5821;SDS011;2937;48.562;8.022;2023-05-07T09:53:52;8.47;;;7.57;;
5821;SDS011;2937;48.562;8.022;2023-05-07T09:58:46;9.40;;;8.30;;
5821;SDS011;2937;48.562;8.022;2023-05-07T10:03:40;8.53;;;7.70;;
5821;SDS011;2937;48.562;8.022;2023-05-07T10:08:34;8.10;;;7.10;;
5821;SDS011;2937;48.562;8.022;2023-05-07T10:13:30;12.40;;;7.63;;
5821;SDS011;2937;48.562;8.022;2023-05-07T10:18:24;7.50;;;6.90;;
5821;SDS011;2937;48.562;8.022;2023-05-07T10:23:25;7.47;;;6.70;;
5821;SDS011;2937;48.562;8.022;2023-05-07T10:28:23;8.97;;;6.93;;
5821;SDS011;2937;48.562;8.022;2023-05-07T10:33:19;7.93;;;7.03;;
5821;SDS011;2937;48.562;8.022;2023-05-07T10:38:14;6.33;;;5.73;;
5821;SDS011;2937;48.562;8.022;2023-05-07T10:43:09;6.80;;;6.10;;
5821;SDS011;2937;48.562;8.022;2023-05-07T10:48:09;6.60;;;5.80;;
5821;SDS011;2937;48.562;8.022;2023-05-07T10:53:26;5.67;;;4.77;;
5821;SDS011;2937;48.562;8.022;2023-05-07T10:58:26;6.90;;;5.90;;
5821;SDS011;2937;48.562;8.022;2023-05-07T11:08:59;8.20;;;7.50;;
5821;SDS011;2937;48.562;8.022;2023-05-07T11:13:59;7.37;;;6.67;;
5821;SDS011;2937;48.562;8.022;2023-05-07T11:19:06;8.37;;;7.47;;
5821;SDS011;2937;48.562;8.022;2023-05-07T11:24:06;8.90;;;7.90;;
5821;SDS011;2937;48.562;8.022;2023-05-07T11:29:10;10.87;;;6.33;;
5821;SDS011;2937;48.562;8.022;2023-05-07T11:34:03;7.90;;;7.10;;
5821;SDS011;2937;48.562;8.022;2023-05-07T11:38:56;7.63;;;6.83;;
5821;SDS011;2937;48.562;8.022;2023-05-07T11:43:59;10.10;;;7.00;;
5821;SDS011;2937;48.562;8.022;2023-05-07T11:48:52;8.10;;;6.87;;
5821;SDS011;2937;48.562;8.022;2023-05-07T11:53:45;7.40;;;6.70;;
5821;SDS011;2937;48.562;8.022;2023-05-07T11:58:38;9.30;;;6.10;;
5821;SDS011;2937;48.562;8.022;2023-05-07T12:03:32;8.53;;;6.03;;
5821;SDS011;2937;48.562;8.022;2023-05-07T12:08:27;6.90;;;6.27;;
5821;SDS011;2937;48.562;8.022;2023-05-07T12:13:20;8.53;;;6.00;;
5821;SDS011;2937;48.562;8.022;2023-05-07T12:18:13;7.73;;;6.63;;
5821;SDS011;2937;48.562;8.022;2023-05-07T12:23:07;7.13;;;6.37;;
5821;SDS011;2937;48.562;8.022;2023-05-07T12:28:00;6.93;;;6.23;;
5821;SDS011;2937;48.562;8.022;2023-05-07T12:32:52;5.93;;;5.43;;
5821;SDS011;2937;48.562;8.022;2023-05-07T12:37:45;6.90;;;5.50;;
5821;SDS011;2937;48.562;8.022;2023-05-07T12:42:48;6.80;;;5.87;;
5821;SDS011;2937;48.562;8.022;2023-05-07T12:47:44;7.40;;;6.27;;
5821;SDS011;2937;48.562;8.022;2023-05-07T12:52:37;7.20;;;6.43;;
5821;SDS011;2937;48.562;8.022;2023-05-07T12:57:30;7.77;;;6.90;;
5821;SDS011;2937;48.562;8.022;2023-05-07T13:02:33;7.10;;;5.60;;
5821;SDS011;2937;48.562;8.022;2023-05-07T13:07:26;6.40;;;5.37;;
5821;SDS011;2937;48.562;8.022;2023-05-07T13:12:21;8.87;;;6.40;;
5821;SDS011;2937;48.562;8.022;2023-05-07T13:17:13;8.03;;;5.77;;
5821;SDS011;2937;48.562;8.022;2023-05-07T13:22:08;6.23;;;5.60;;
5821;SDS011;2937;48.562;8.022;2023-05-07T13:27:00;8.20;;;6.30;;
5821;SDS011;2937;48.562;8.022;2023-05-07T13:31:54;7.53;;;6.73;;
5821;SDS011;2937;48.562;8.022;2023-05-07T13:36:47;8.50;;;6.97;;
5821;SDS011;2937;48.562;8.022;2023-05-07T13:41:41;8.77;;;7.87;;
5821;SDS011;2937;48.562;8.022;2023-05-07T13:46:33;8.37;;;7.10;;
5821;SDS011;2937;48.562;8.022;2023-05-07T13:51:26;7.63;;;6.50;;
5821;SDS011;2937;48.562;8.022;2023-05-07T13:56:19;8.80;;;7.40;;
5821;SDS011;2937;48.562;8.022;2023-05-07T14:01:13;7.67;;;6.70;;
5821;SDS011;2937;48.562;8.022;2023-05-07T14:06:06;10.07;;;8.00;;
5821;SDS011;2937;48.562;8.022;2023-05-07T14:10:59;11.53;;;8.30;;
5821;SDS011;2937;48.562;8.022;2023-05-07T14:15:52;9.97;;;7.60;;
5821;SDS011;2937;48.562;8.022;2023-05-07T14:20:46;7.53;;;6.60;;
5821;SDS011;2937;48.562;8.022;2023-05-07T14:25:40;7.17;;;6.20;;
5821;SDS011;2937;48.562;8.022;2023-05-07T14:30:34;7.50;;;6.20;;
5821;SDS011;2937;48.562;8.022;2023-05-07T14:35:27;6.90;;;6.20;;
5821;SDS011;2937;48.562;8.022;2023-05-07T14:40:21;7.80;;;7.03;;
5821;SDS011;2937;48.562;8.022;2023-05-07T14:45:14;6.23;;;5.63;;
5821;SDS011;2937;48.562;8.022;2023-05-07T14:50:07;6.90;;;5.80;;
5821;SDS011;2937;48.562;8.022;2023-05-07T14:54:59;5.70;;;5.10;;
5821;SDS011;2937;48.562;8.022;2023-05-07T14:59:54;7.23;;;5.50;;
5821;SDS011;2937;48.562;8.022;2023-05-07T15:04:46;5.47;;;4.97;;
5821;SDS011;2937;48.562;8.022;2023-05-07T15:09:40;5.60;;;5.10;;
5821;SDS011;2937;48.562;8.022;2023-05-07T15:14:32;8.07;;;5.47;;
5821;SDS011;2937;48.562;8.022;2023-05-07T15:19:27;5.80;;;5.20;;
5821;SDS011;2937;48.562;8.022;2023-05-07T15:24:20;10.43;;;6.20;;
5821;SDS011;2937;48.562;8.022;2023-05-07T15:29:13;7.13;;;6.30;;
5821;SDS011;2937;48.562;8.022;2023-05-07T15:34:06;8.30;;;6.63;;
5821;SDS011;2937;48.562;8.022;2023-05-07T15:39:00;7.53;;;6.80;;
5821;SDS011;2937;48.562;8.022;2023-05-07T15:43:54;7.60;;;6.90;;
5821;SDS011;2937;48.562;8.022;2023-05-07T15:48:47;7.30;;;6.60;;
5821;SDS011;2937;48.562;8.022;2023-05-07T15:53:39;7.90;;;5.60;;
5821;SDS011;2937;48.562;8.022;2023-05-07T15:58:33;6.13;;;4.97;;
5821;SDS011;2937;48.562;8.022;2023-05-07T16:03:27;5.50;;;4.67;;
5821;SDS011;2937;48.562;8.022;2023-05-07T16:08:20;4.97;;;4.00;;
5821;SDS011;2937;48.562;8.022;2023-05-07T16:13:13;4.80;;;4.13;;
5821;SDS011;2937;48.562;8.022;2023-05-07T16:18:10;4.60;;;4.20;;
5821;SDS011;2937;48.562;8.022;2023-05-07T16:23:06;4.17;;;3.77;;
5821;SDS011;2937;48.562;8.022;2023-05-07T16:27:59;5.07;;;4.23;;
5821;SDS011;2937;48.562;8.022;2023-05-07T16:32:52;4.10;;;3.70;;
5821;SDS011;2937;48.562;8.022;2023-05-07T16:37:46;4.70;;;3.73;;
5821;SDS011;2937;48.562;8.022;2023-05-07T16:42:38;5.00;;;3.97;;
5821;SDS011;2937;48.562;8.022;2023-05-07T16:47:32;5.20;;;4.20;;
5821;SDS011;2937;48.562;8.022;2023-05-07T16:52:24;4.73;;;4.13;;
5821;SDS011;2937;48.562;8.022;2023-05-07T16:57:18;4.90;;;4.40;;
5821;SDS011;2937;48.562;8.022;2023-05-07T17:02:11;4.67;;;4.13;;
5821;SDS011;2937;48.562;8.022;2023-05-07T17:07:04;7.53;;;4.10;;
5821;SDS011;2937;48.562;8.022;2023-05-07T17:11:57;6.47;;;4.23;;
5821;SDS011;2937;48.562;8.022;2023-05-07T17:16:51;7.73;;;4.40;;
5821;SDS011;2937;48.562;8.022;2023-05-07T17:21:44;6.53;;;4.33;;
5821;SDS011;2937;48.562;8.022;2023-05-07T17:26:36;4.67;;;4.20;;
5821;SDS011;2937;48.562;8.022;2023-05-07T17:31:32;5.10;;;4.60;;
5821;SDS011;2937;48.562;8.022;2023-05-07T17:36:26;5.93;;;4.60;;
5821;SDS011;2937;48.562;8.022;2023-05-07T17:41:19;4.93;;;4.40;;
5821;SDS011;2937;48.562;8.022;2023-05-07T17:46:13;5.07;;;4.40;;
5821;SDS011;2937;48.562;8.022;2023-05-07T17:51:05;5.23;;;4.57;;
5821;SDS011;2937;48.562;8.022;2023-05-07T17:55:59;4.27;;;3.87;;
5821;SDS011;2937;48.562;8.022;2023-05-07T18:00:52;7.17;;;4.27;;
5821;SDS011;2937;48.562;8.022;2023-05-07T18:05:45;5.73;;;4.50;;
5821;SDS011;2937;48.562;8.022;2023-05-07T18:10:38;5.23;;;4.73;;
5821;SDS011;2937;48.562;8.022;2023-05-07T18:15:32;5.40;;;4.70;;
5821;SDS011;2937;48.562;8.022;2023-05-07T18:20:25;9.70;;;4.93;;
5821;SDS011;2937;48.562;8.022;2023-05-07T18:25:17;5.13;;;4.50;;
5821;SDS011;2937;48.562;8.022;2023-05-07T18:30:10;6.00;;;4.70;;
5821;SDS011;2937;48.562;8.022;2023-05-07T18:35:05;6.50;;;4.50;;
5821;SDS011;2937;48.562;8.022;2023-05-07T18:39:58;7.40;;;4.90;;
5821;SDS011;2937;48.562;8.022;2023-05-07T18:44:54;7.67;;;4.77;;
5821;SDS011;2937;48.562;8.022;2023-05-07T18:49:46;5.63;;;4.50;;
5821;SDS011;2937;48.562;8.022;2023-05-07T18:54:41;5.73;;;5.10;;
5821;SDS011;2937;48.562;8.022;2023-05-07T18:59:34;6.07;;;5.10;;
5821;SDS011;2937;48.562;8.022;2023-05-07T19:04:27;6.47;;;5.87;;
5821;SDS011;2937;48.562;8.022;2023-05-07T19:09:20;6.60;;;5.73;;
5821;SDS011;2937;48.562;8.022;2023-05-07T19:14:19;7.90;;;6.30;;
5821;SDS011;2937;48.562;8.022;2023-05-07T19:19:13;6.87;;;6.17;;
5821;SDS011;2937;48.562;8.022;2023-05-07T19:24:06;7.00;;;6.30;;
5821;SDS011;2937;48.562;8.022;2023-05-07T19:28:59;7.07;;;6.10;;
5821;SDS011;2937;48.562;8.022;2023-05-07T19:34:10;7.80;;;6.50;;
5821;SDS011;2937;48.562;8.022;2023-05-07T19:39:04;7.80;;;6.10;;
5821;SDS011;2937;48.562;8.022;2023-05-07T19:43:57;6.57;;;5.97;;
5821;SDS011;2937;48.562;8.022;2023-05-07T19:48:49;9.83;;;7.00;;
5821;SDS011;2937;48.562;8.022;2023-05-07T19:53:44;10.93;;;7.90;;
5821;SDS011;2937;48.562;8.022;2023-05-07T19:58:36;9.53;;;8.20;;
5821;SDS011;2937;48.562;8.022;2023-05-07T20:03:30;10.30;;;9.20;;
5821;SDS011;2937;48.562;8.022;2023-05-07T20:08:24;10.83;;;9.73;;
5821;SDS011;2937;48.562;8.022;2023-05-07T20:13:18;10.07;;;9.00;;
5821;SDS011;2937;48.562;8.022;2023-05-07T20:18:11;11.07;;;9.97;;
5821;SDS011;2937;48.562;8.022;2023-05-07T20:23:05;13.70;;;10.30;;
5821;SDS011;2937;48.562;8.022;2023-05-07T20:27:58;9.57;;;8.57;;
5821;SDS011;2937;48.562;8.022;2023-05-07T20:32:52;15.00;;;11.87;;
5821;SDS011;2937;48.562;8.022;2023-05-07T20:37:45;10.80;;;8.53;;
5821;SDS011;2937;48.562;8.022;2023-05-07T20:42:38;12.50;;;10.40;;
5821;SDS011;2937;48.562;8.022;2023-05-07T20:47:30;10.20;;;8.40;;
5821;SDS011;2937;48.562;8.022;2023-05-07T20:52:25;21.00;;;16.10;;
5821;SDS011;2937;48.562;8.022;2023-05-07T20:57:18;10.00;;;9.00;;
5821;SDS011;2937;48.562;8.022;2023-05-07T21:02:11;9.13;;;8.13;;
5821;SDS011;2937;48.562;8.022;2023-05-07T21:07:04;8.47;;;7.40;;
5821;SDS011;2937;48.562;8.022;2023-05-07T21:11:58;13.57;;;7.60;;
5821;SDS011;2937;48.562;8.022;2023-05-07T21:16:50;8.10;;;7.17;;
5821;SDS011;2937;48.562;8.022;2023-05-07T21:21:43;13.17;;;11.23;;
5821;SDS011;2937;48.562;8.022;2023-05-07T21:26:36;13.70;;;12.07;;
5821;SDS011;2937;48.562;8.022;2023-05-07T21:31:31;10.47;;;9.30;;
5821;SDS011;2937;48.562;8.022;2023-05-07T21:36:24;11.67;;;8.60;;
5821;SDS011;2937;48.562;8.022;2023-05-07T21:41:17;13.20;;;11.80;;
5821;SDS011;2937;48.562;8.022;2023-05-07T21:46:10;15.20;;;13.30;;
5821;SDS011;2937;48.562;8.022;2023-05-07T21:51:05;20.90;;;18.27;;
5821;SDS011;2937;48.562;8.022;2023-05-07T21:55:58;12.30;;;10.90;;
5821;SDS011;2937;48.562;8.022;2023-05-07T22:00:52;9.70;;;7.43;;
5821;SDS011;2937;48.562;8.022;2023-05-07T22:05:45;11.07;;;9.50;;
5821;SDS011;2937;48.562;8.022;2023-05-07T22:10:41;11.13;;;9.93;;
5821;SDS011;2937;48.562;8.022;2023-05-07T22:15:34;15.27;;;11.83;;
5821;SDS011;2937;48.562;8.022;2023-05-07T22:20:39;15.87;;;13.00;;
5821;SDS011;2937;48.562;8.022;2023-05-07T22:25:32;17.13;;;13.70;;
5821;SDS011;2937;48.562;8.022;2023-05-07T22:30:27;16.80;;;14.30;;
5821;SDS011;2937;48.562;8.022;2023-05-07T22:35:19;16.00;;;13.10;;
5821;SDS011;2937;48.562;8.022;2023-05-07T22:40:12;16.87;;;12.60;;
5821;SDS011;2937;48.562;8.022;2023-05-07T22:45:06;12.67;;;11.37;;
5821;SDS011;2937;48.562;8.022;2023-05-07T22:50:00;13.17;;;11.77;;
5821;SDS011;2937;48.562;8.022;2023-05-07T22:54:52;17.60;;;11.20;;
5821;SDS011;2937;48.562;8.022;2023-05-07T22:59:45;13.90;;;12.40;;
5821;SDS011;2937;48.562;8.022;2023-05-07T23:04:38;10.27;;;9.17;;
5821;SDS011;2937;48.562;8.022;2023-05-07T23:09:32;9.37;;;8.30;;
5821;SDS011;2937;48.562;8.022;2023-05-07T23:14:24;8.93;;;7.73;;
5821;SDS011;2937;48.562;8.022;2023-05-07T23:19:17;9.03;;;8.10;;
5821;SDS011;2937;48.562;8.022;2023-05-07T23:24:10;8.60;;;7.73;;
5821;SDS011;2937;48.562;8.022;2023-05-07T23:29:04;7.70;;;6.90;;
5821;SDS011;2937;48.562;8.022;2023-05-07T23:33:57;7.43;;;6.10;;
5821;SDS011;2937;48.562;8.022;2023-05-07T23:38:49;7.90;;;7.10;;
5821;SDS011;2937;48.562;8.022;2023-05-07T23:43:42;7.30;;;6.60;;
5821;SDS011;2937;48.562;8.022;2023-05-07T23:48:36;8.27;;;7.47;;
5821;SDS011;2937;48.562;8.022;2023-05-07T23:53:29;8.73;;;7.83;;
5821;SDS011;2937;48.562;8.022;2023-05-07T23:58:21;8.73;;;7.80;;
